Time;durP1;ratioP1;P1;durP2;ratioP2;P2;SDS_P1;SDS_P2;PMS_P1;PMS_P2;Temp;Humidity;BMP_temperature;BMP_pressure;BME280_temperature;BME280_humidity;BME280_pressure;Samples;Min_cycle;Max_cycle;Signal;HPM_P1;HPM_P2
2022/10/09 00:01:28;;;;;;;18.53;16.43;;;8.10;99.90;;;-141.84;79.84;18495.06;5093395;28;20215;-62
2022/10/09 00:03:58;;;;;;;28.17;25.13;;;8.10;99.90;;;-141.84;80.18;18493.03;5091993;28;20234;-63
2022/10/09 00:06:29;;;;;;;28.20;25.23;;;8.10;99.90;;;-141.84;80.46;18478.81;5091870;28;20232;-63
2022/10/09 00:08:58;;;;;;;21.87;19.50;;;8.00;99.90;;;-141.84;80.49;18480.84;5093015;28;20224;-62
2022/10/09 00:11:29;;;;;;;19.33;16.07;;;8.00;99.90;;;-141.84;80.71;18440.22;5092474;28;20653;-61
2022/10/09 00:13:58;;;;;;;15.30;12.23;;;8.10;99.90;;;-141.84;80.94;18444.28;5092666;28;20180;-62
2022/10/09 00:16:28;;;;;;;10.43;9.13;;;8.00;99.90;;;-141.84;80.43;18456.47;5093007;28;20341;-62
2022/10/09 00:18:57;;;;;;;11.30;9.10;;;8.00;99.90;;;-141.84;80.57;18425.97;5092327;28;20718;-62
2022/10/09 00:21:29;;;;;;;11.47;10.27;;;8.00;99.90;;;-141.84;80.81;18454.44;5092116;28;20224;-61
2022/10/09 00:24:01;;;;;;;12.90;10.57;;;8.00;99.90;;;-141.84;80.64;18462.56;5092516;28;20228;-62
2022/10/09 00:26:29;;;;;;;10.80;9.13;;;7.90;99.90;;;-141.84;80.60;18444.28;5092635;28;20253;-61
2022/10/09 00:28:58;;;;;;;10.13;7.63;;;8.00;99.90;;;-141.84;80.69;18423.94;5092322;28;20200;-61
2022/10/09 00:31:28;;;;;;;8.17;7.30;;;7.90;99.90;;;-141.84;80.76;18452.41;5092838;28;20300;-62
2022/10/09 00:33:56;;;;;;;7.63;6.00;;;7.90;99.90;;;-141.84;80.48;18442.25;5108611;28;20584;-62
2022/10/09 00:36:26;;;;;;;7.67;6.23;;;7.90;99.90;;;-141.84;80.48;18419.88;5112321;27;20227;-62
2022/10/09 00:38:55;;;;;;;10.53;6.87;;;7.90;99.90;;;-141.84;80.92;18415.81;5112398;28;20223;-61
2022/10/09 00:41:27;;;;;;;7.10;6.40;;;7.90;99.90;;;-141.84;80.88;18440.22;5112906;28;20222;-61
2022/10/09 00:43:58;;;;;;;8.37;7.13;;;7.90;99.90;;;-141.84;80.30;18401.59;5111588;28;20191;-62
2022/10/09 00:46:35;;;;;;;10.87;8.53;;;7.90;99.90;;;-141.84;80.07;18428.03;5112479;28;20444;-60
2022/10/09 00:49:13;;;;;;;10.00;8.07;;;7.90;99.90;;;-141.84;80.56;18413.78;5111881;28;20226;-61
2022/10/09 00:51:44;;;;;;;12.43;8.00;;;7.80;99.90;;;-141.84;80.64;18383.31;5112107;28;20230;-63
2022/10/09 00:54:18;;;;;;;14.03;9.37;;;7.80;99.90;;;-141.84;80.46;18436.16;5112147;28;20231;-61
2022/10/09 00:56:46;;;;;;;10.10;8.40;;;7.80;99.90;;;-141.84;80.15;18409.72;5112263;28;20277;-63
2022/10/09 00:59:16;;;;;;;9.50;8.50;;;7.80;99.90;;;-141.84;79.81;18401.59;5111928;28;20223;-62
2022/10/09 01:01:46;;;;;;;9.60;8.60;;;7.80;99.90;;;-141.84;80.23;18419.88;5100034;28;20211;-65
2022/10/09 01:04:15;;;;;;;9.47;8.07;;;7.80;99.90;;;-141.84;80.71;18395.50;5091475;28;20302;-61
2022/10/09 01:07:04;;;;;;;9.57;6.87;;;7.90;99.90;;;-141.84;80.33;18413.78;5090804;28;20242;-61
2022/10/09 01:09:42;;;;;;;9.13;6.00;;;7.80;99.90;;;-141.84;80.25;18379.25;5090534;28;20228;-61
2022/10/09 01:12:24;;;;;;;7.90;5.90;;;7.80;99.90;;;-141.84;80.33;18413.78;5091508;28;20224;-61
2022/10/09 01:15:07;;;;;;;6.80;5.97;;;7.80;99.90;;;-141.84;80.24;18450.38;5091274;28;20223;-62
2022/10/09 01:17:45;;;;;;;8.20;5.97;;;7.70;99.90;;;-141.84;80.50;18401.59;5091588;28;20230;-62
2022/10/09 01:20:38;;;;;;;7.93;6.57;;;7.70;99.90;;;-141.84;81.27;18387.38;5091688;28;20223;-62
2022/10/09 01:23:42;;;;;;;8.17;6.43;;;7.70;99.90;;;-141.84;81.37;18399.56;5091117;28;20644;-61
2022/10/09 01:26:32;;;;;;;7.00;6.23;;;7.60;99.90;;;-141.84;81.27;18397.53;5091062;28;20230;-62
2022/10/09 01:29:08;;;;;;;11.17;7.67;;;7.60;99.90;;;-141.84;81.97;18367.06;5091164;28;20189;-62
2022/10/09 01:31:42;;;;;;;9.73;6.77;;;7.60;99.90;;;-141.84;82.02;18401.59;5091222;28;20195;-63
2022/10/09 01:34:14;;;;;;;7.97;5.77;;;7.50;99.90;;;-141.84;82.15;18363.00;5090639;28;20730;-61
2022/10/09 01:36:44;;;;;;;8.87;6.60;;;7.60;99.90;;;-141.84;82.51;18340.66;5090882;28;20223;-64
2022/10/09 01:39:18;;;;;;;8.03;7.17;;;7.50;99.90;;;-141.84;82.79;18342.69;5090965;28;20235;-61
2022/10/09 01:41:48;;;;;;;10.77;7.17;;;7.60;99.90;;;-141.84;82.69;18342.69;5091155;28;20223;-62
2022/10/09 01:44:20;;;;;;;10.10;7.33;;;7.60;99.90;;;-141.84;82.50;18373.16;5090913;28;20232;-61
2022/10/09 01:46:49;;;;;;;10.77;7.47;;;7.60;99.90;;;-141.84;82.63;18332.53;5091456;28;20215;-63
2022/10/09 01:49:40;;;;;;;12.87;10.43;;;7.50;99.90;;;-141.84;82.48;18328.47;5091235;28;20227;-62
2022/10/09 01:52:23;;;;;;;10.97;8.83;;;7.60;99.90;;;-141.84;82.37;18338.63;5090820;28;20227;-63
2022/10/09 01:55:14;;;;;;;11.73;10.53;;;7.50;99.90;;;-141.84;81.65;18306.13;5090693;28;20509;-61
2022/10/09 01:57:54;;;;;;;11.30;9.87;;;7.60;99.90;;;-141.84;81.64;18318.31;5090802;28;20216;-63
2022/10/09 02:00:25;;;;;;;12.73;9.77;;;7.60;99.90;;;-141.84;81.32;18308.16;5090653;28;20234;-64
2022/10/09 02:02:56;;;;;;;13.40;11.37;;;7.60;99.90;;;-141.84;80.80;18330.50;5090796;28;20640;-62
2022/10/09 02:05:28;;;;;;;10.43;8.97;;;7.60;99.90;;;-141.84;80.82;18356.91;5090748;28;20643;-62
2022/10/09 02:07:58;;;;;;;15.00;11.03;;;7.60;99.90;;;-141.84;81.18;18314.25;5090951;28;20371;-64
2022/10/09 02:10:27;;;;;;;12.63;11.17;;;7.50;99.90;;;-141.84;81.84;18291.91;5091370;28;20412;-63
2022/10/09 02:12:59;;;;;;;12.23;9.07;;;7.50;99.90;;;-141.84;81.87;18302.06;5090510;28;20228;-62
2022/10/09 02:15:41;;;;;;;10.57;9.47;;;7.50;99.90;;;-141.84;82.22;18332.53;5090195;28;20227;-62
2022/10/09 02:18:14;;;;;;;11.37;8.97;;;7.40;99.90;;;-141.84;82.30;18322.38;5090585;28;20223;-63
2022/10/09 02:20:49;;;;;;;11.40;9.17;;;7.40;99.90;;;-141.84;82.72;18318.31;5090097;28;20230;-62
2022/10/09 02:23:19;;;;;;;9.67;8.63;;;7.40;99.90;;;-141.84;82.90;18295.97;5091392;28;20230;-62
2022/10/09 02:25:47;;;;;;;8.77;7.87;;;7.40;99.90;;;-141.84;82.97;18302.06;5090961;28;20223;-63
2022/10/09 02:28:15;;;;;;;12.13;8.20;;;7.30;99.90;;;-141.84;83.24;18285.81;5090721;28;20264;-62
2022/10/09 02:31:01;;;;;;;11.13;8.77;;;7.30;99.90;;;-141.84;83.00;18281.75;5090216;28;20230;-62
2022/10/09 02:33:33;;;;;;;11.00;9.40;;;7.30;99.90;;;-141.84;82.90;18289.88;5090354;28;20224;-63
2022/10/09 02:36:02;;;;;;;10.67;8.90;;;7.30;99.90;;;-141.84;82.85;18273.63;5089293;28;20238;-61
2022/10/09 02:38:30;;;;;;;11.43;9.60;;;7.30;99.90;;;-141.84;82.89;18279.72;5090454;28;20223;-61
2022/10/09 02:40:59;;;;;;;14.40;9.80;;;7.30;99.90;;;-141.84;82.77;18249.25;5090189;28;20204;-62
2022/10/09 02:43:27;;;;;;;11.83;10.40;;;7.30;99.90;;;-141.84;82.72;18241.13;5090782;28;20203;-63
2022/10/09 02:45:56;;;;;;;14.77;13.07;;;7.30;99.90;;;-141.84;83.00;18232.97;5090096;28;20224;-62
2022/10/09 02:48:24;;;;;;;17.87;16.07;;;7.20;99.90;;;-141.84;83.01;18265.50;5090139;28;20236;-62
2022/10/09 02:50:52;;;;;;;26.17;22.57;;;7.20;99.90;;;-141.84;83.16;18247.22;5089807;28;20711;-62
2022/10/09 02:53:20;;;;;;;19.73;16.50;;;7.20;99.90;;;-141.84;82.44;18232.97;5090058;28;20288;-63
2022/10/09 02:55:48;;;;;;;26.63;23.80;;;7.20;99.90;;;-141.84;81.71;18253.31;5090074;28;20655;-65
2022/10/09 02:58:16;;;;;;;28.67;25.57;;;7.30;99.90;;;-141.84;81.63;18245.19;5090319;28;20707;-62
2022/10/09 03:00:48;;;;;;;28.70;25.60;;;7.20;99.90;;;-141.84;81.71;18243.16;5089913;28;20235;-62
2022/10/09 03:03:18;;;;;;;26.67;23.10;;;7.20;99.90;;;-141.84;81.98;18241.13;5090274;28;20228;-63
2022/10/09 03:05:47;;;;;;;24.03;19.47;;;7.20;99.90;;;-141.84;81.94;18269.56;5090220;28;20223;-61
2022/10/09 03:08:15;;;;;;;19.27;17.13;;;7.20;99.90;;;-141.84;82.38;18249.25;5092544;28;20237;-61
2022/10/09 03:10:43;;;;;;;15.60;13.93;;;7.10;99.90;;;-141.84;82.50;18224.84;5094229;28;20579;-61
2022/10/09 03:13:11;;;;;;;14.83;13.27;;;7.10;99.90;;;-141.84;82.46;18200.47;5093470;28;20220;-62
2022/10/09 03:15:39;;;;;;;12.83;11.50;;;7.10;99.90;;;-141.84;82.35;18200.47;5093320;28;20224;-61
2022/10/09 03:18:07;;;;;;;12.77;10.63;;;7.10;99.90;;;-141.84;82.44;18263.47;5093511;28;20223;-61
2022/10/09 03:20:38;;;;;;;13.97;10.53;;;7.10;99.90;;;-141.84;82.67;18232.97;5093318;28;20243;-61
2022/10/09 03:23:06;;;;;;;11.80;9.83;;;7.00;99.90;;;-141.84;83.01;18192.34;5093632;28;20196;-61
2022/10/09 03:25:34;;;;;;;11.57;8.97;;;7.10;99.90;;;-141.84;83.08;18216.72;5093330;28;20204;-61
2022/10/09 03:28:02;;;;;;;9.73;8.10;;;7.00;99.90;;;-141.84;83.06;18190.31;5093243;28;20228;-62
2022/10/09 03:30:31;;;;;;;11.40;8.23;;;7.00;99.90;;;-141.84;82.62;18239.09;5093211;28;20224;-62
2022/10/09 03:32:59;;;;;;;10.97;7.97;;;7.10;99.90;;;-141.84;82.18;18218.75;5093461;28;20642;-62
2022/10/09 03:35:27;;;;;;;10.93;7.93;;;7.10;99.90;;;-141.84;82.08;18222.81;5093294;28;20223;-62
2022/10/09 03:37:56;;;;;;;10.10;7.83;;;7.10;99.90;;;-141.84;81.74;18206.56;5092022;28;20204;-62
2022/10/09 03:40:24;;;;;;;14.13;9.20;;;7.10;99.90;;;-141.84;81.63;18212.66;5093069;28;20245;-61
2022/10/09 03:42:52;;;;;;;11.27;8.90;;;7.10;99.90;;;-141.84;81.71;18204.53;5092724;28;20223;-62
2022/10/09 03:45:20;;;;;;;11.63;9.57;;;7.10;99.90;;;-141.84;82.09;18216.72;5092981;28;20228;-61
2022/10/09 03:47:48;;;;;;;10.27;9.17;;;7.00;99.90;;;-141.84;81.87;18245.19;5092886;28;20622;-62
2022/10/09 03:50:16;;;;;;;11.30;9.20;;;7.10;99.90;;;-141.84;81.54;18204.53;5092648;28;20595;-63
2022/10/09 03:52:44;;;;;;;13.17;9.77;;;7.10;99.90;;;-141.84;81.12;18228.91;5093466;28;20200;-62
2022/10/09 03:55:14;;;;;;;12.83;10.70;;;7.10;99.90;;;-141.84;81.49;18208.59;5092600;28;20604;-62
2022/10/09 03:57:42;;;;;;;12.43;10.70;;;7.00;99.90;;;-141.84;82.44;18178.13;5092782;28;20216;-62
2022/10/09 04:00:12;;;;;;;10.90;9.10;;;6.90;99.90;;;-141.84;83.01;18180.16;5092820;28;20224;-61
2022/10/09 04:02:40;;;;;;;11.77;8.77;;;6.90;99.90;;;-141.84;83.41;18178.13;5092119;28;20228;-62
2022/10/09 04:05:09;;;;;;;11.10;8.57;;;6.80;99.90;;;-141.84;82.99;18192.34;5091921;28;20685;-62
2022/10/09 04:07:37;;;;;;;11.10;8.73;;;6.80;99.90;;;-141.84;82.35;18167.97;5092776;28;20223;-62
2022/10/09 04:10:06;;;;;;;11.30;8.80;;;6.80;99.90;;;-141.84;79.35;18208.59;5092355;28;20596;-62
2022/10/09 04:12:36;;;;;;;11.27;8.27;;;6.90;99.90;;;-141.84;79.49;18245.19;5092276;28;20303;-62
2022/10/09 04:15:05;;;;;;;9.30;8.20;;;6.90;99.90;;;-141.84;79.03;18230.94;5092297;28;20235;-62
2022/10/09 04:17:33;;;;;;;10.77;8.03;;;7.00;99.90;;;-141.84;80.23;18208.59;5091357;28;20665;-62
2022/10/09 04:20:01;;;;;;;10.50;7.43;;;6.90;99.90;;;-141.84;80.67;18204.53;5092142;28;20208;-62
2022/10/09 04:22:29;;;;;;;11.53;9.07;;;6.90;99.90;;;-141.84;81.78;18188.28;5092840;28;20214;-61
2022/10/09 04:24:57;;;;;;;12.17;8.30;;;6.80;99.90;;;-141.84;82.37;18188.28;5092132;28;20227;-60
2022/10/09 04:27:26;;;;;;;10.30;8.23;;;6.80;99.90;;;-141.84;82.99;18192.34;5091859;28;20231;-61
2022/10/09 04:29:55;;;;;;;10.20;8.57;;;6.70;99.90;;;-141.84;83.17;18157.81;5092203;28;20227;-61
2022/10/09 04:32:23;;;;;;;10.47;8.60;;;6.70;99.90;;;-141.84;83.36;18159.84;5091916;28;20771;-62
2022/10/09 04:34:51;;;;;;;9.47;7.83;;;6.70;99.90;;;-141.84;83.68;18161.88;5092215;28;20225;-61
2022/10/09 04:37:19;;;;;;;10.70;8.17;;;6.70;99.90;;;-141.84;83.77;18131.41;5092388;28;20214;-61
2022/10/09 04:39:47;;;;;;;10.53;7.97;;;6.70;99.90;;;-141.84;83.48;18147.66;5091951;28;20227;-62
2022/10/09 04:42:15;;;;;;;11.33;8.50;;;6.60;99.90;;;-141.84;82.80;18170.00;5091772;28;20242;-62
2022/10/09 04:44:43;;;;;;;11.63;7.90;;;6.60;99.90;;;-141.84;82.02;18131.41;5090802;28;20223;-62
2022/10/09 04:47:12;;;;;;;8.83;7.93;;;6.60;99.90;;;-141.84;82.04;18172.03;5091557;28;20255;-61
2022/10/09 04:49:40;;;;;;;10.60;8.97;;;6.60;99.90;;;-141.84;82.00;18151.72;5092442;28;20273;-61
2022/10/09 04:52:08;;;;;;;9.73;8.33;;;6.60;99.90;;;-141.84;82.46;18165.94;5091341;28;20224;-62
2022/10/09 04:54:36;;;;;;;11.10;9.03;;;6.60;99.90;;;-141.84;82.37;18159.84;5091557;28;20235;-63
2022/10/09 04:57:04;;;;;;;10.27;9.17;;;6.60;99.90;;;-141.84;81.92;18170.00;5091568;28;20231;-62
2022/10/09 04:59:32;;;;;;;12.77;9.37;;;6.50;99.90;;;-141.84;81.68;18147.66;5091619;28;20222;-62
2022/10/09 05:02:00;;;;;;;15.23;10.30;;;6.60;99.90;;;-141.84;81.76;18141.56;5091337;28;20609;-62
2022/10/09 05:04:30;;;;;;;12.33;10.83;;;6.50;99.90;;;-141.84;81.78;18159.84;5091838;28;20207;-62
2022/10/09 05:06:58;;;;;;;13.83;10.60;;;6.60;99.90;;;-141.84;81.79;18145.63;5091251;28;20224;-62
2022/10/09 05:09:26;;;;;;;14.27;12.77;;;6.50;99.90;;;-141.84;81.91;18131.41;5090565;28;20254;-62
2022/10/09 05:11:54;;;;;;;16.33;14.63;;;6.60;99.90;;;-141.84;81.95;18151.72;5090852;28;20224;-62
2022/10/09 05:14:22;;;;;;;18.00;15.00;;;6.50;99.90;;;-141.84;81.57;18143.59;5091747;28;20278;-62
2022/10/09 05:16:51;;;;;;;16.07;14.17;;;6.60;99.90;;;-141.84;81.43;18133.44;5091150;28;20595;-61
2022/10/09 05:19:41;;;;;;;17.37;14.83;;;6.60;99.90;;;-141.84;81.04;18176.09;5091817;28;20232;-61
2022/10/09 05:22:09;;;;;;;20.23;15.00;;;6.60;99.90;;;-141.84;81.32;18172.03;5090850;28;20223;-62
2022/10/09 05:24:37;;;;;;;18.63;16.00;;;6.60;99.90;;;-141.84;81.87;18159.84;5091114;28;20266;-61
2022/10/09 05:27:05;;;;;;;21.83;18.40;;;6.60;99.90;;;-141.84;82.42;18188.28;5091142;28;20234;-62
2022/10/09 05:29:33;;;;;;;20.93;17.63;;;6.60;99.90;;;-141.84;82.22;18170.00;5090489;28;20711;-62
2022/10/09 05:32:01;;;;;;;22.13;17.47;;;6.60;99.90;;;-141.84;82.03;18163.91;5091444;28;20574;-62
2022/10/09 05:34:29;;;;;;;21.63;17.70;;;6.60;99.90;;;-141.84;81.71;18143.59;5091949;28;20219;-61
2022/10/09 05:36:59;;;;;;;21.40;16.90;;;6.60;99.90;;;-141.84;82.16;18139.53;5091092;28;20592;-63
2022/10/09 05:39:27;;;;;;;17.10;13.93;;;6.60;99.90;;;-141.84;82.34;18159.84;5091137;28;20228;-62
2022/10/09 05:41:55;;;;;;;16.47;13.50;;;6.60;99.90;;;-141.84;82.85;18131.41;5091039;28;20227;-61
2022/10/09 05:44:23;;;;;;;18.10;14.30;;;6.50;99.90;;;-141.84;82.90;18131.41;5091104;28;20224;-61
2022/10/09 05:46:51;;;;;;;16.47;13.70;;;6.60;99.90;;;-141.84;82.01;18153.75;5090929;28;20257;-61
2022/10/09 05:49:19;;;;;;;17.43;13.80;;;6.70;99.90;;;-141.84;82.02;18139.53;5091010;28;20243;-63
2022/10/09 05:51:48;;;;;;;18.10;15.37;;;6.70;99.90;;;-141.84;82.60;18102.97;5090178;28;20224;-62
2022/10/09 05:54:18;;;;;;;16.27;14.37;;;6.70;99.90;;;-141.84;82.93;18105.00;5090641;28;20227;-61
2022/10/09 05:56:46;;;;;;;15.00;13.03;;;6.70;99.90;;;-141.84;83.07;18135.47;5090948;28;20231;-61
2022/10/09 05:59:18;;;;;;;15.40;12.53;;;6.80;99.90;;;-141.84;82.71;18105.00;5090521;28;20224;-62
2022/10/09 06:01:49;;;;;;;16.60;12.20;;;6.70;99.90;;;-141.84;82.62;18157.81;5091274;28;20198;-61
2022/10/09 06:04:19;;;;;;;13.83;11.03;;;6.80;99.90;;;-141.84;82.76;18139.53;5090637;28;20235;-62
2022/10/09 06:06:49;;;;;;;12.83;9.50;;;6.80;99.90;;;-141.84;82.67;18159.84;5090502;28;20220;-62
2022/10/09 06:09:22;;;;;;;12.03;8.33;;;6.90;99.90;;;-141.84;82.42;18172.03;5090403;28;20232;-63
2022/10/09 06:11:51;;;;;;;10.10;8.20;;;7.00;99.90;;;-141.84;82.17;18133.44;5090547;28;20224;-63
2022/10/09 06:14:21;;;;;;;11.93;8.30;;;7.10;99.90;;;-141.84;82.32;18135.47;5090593;28;20274;-62
2022/10/09 06:16:50;;;;;;;12.80;8.83;;;7.20;99.90;;;-141.84;82.14;18167.97;5090840;28;20196;-64
2022/10/09 06:19:20;;;;;;;11.57;8.53;;;7.20;99.90;;;-141.84;81.96;18141.56;5091060;28;20211;-63
2022/10/09 06:21:49;;;;;;;10.50;8.93;;;7.30;99.90;;;-141.84;81.24;18192.34;5090335;28;20231;-62
2022/10/09 06:24:22;;;;;;;12.63;8.73;;;7.40;99.90;;;-141.84;80.90;18200.47;5090020;28;20292;-62
2022/10/09 06:26:55;;;;;;;13.10;8.40;;;7.50;99.90;;;-141.84;80.21;18206.56;5090163;28;20224;-62
2022/10/09 06:29:23;;;;;;;10.67;8.07;;;7.50;99.90;;;-141.84;79.74;18232.97;5090017;28;20581;-64
2022/10/09 06:31:51;;;;;;;10.20;7.80;;;7.60;99.90;;;-141.84;78.95;18228.91;5090480;28;20711;-63
2022/10/09 06:34:19;;;;;;;10.37;8.27;;;7.70;99.90;;;-141.84;78.36;18251.28;5090831;28;20200;-61
2022/10/09 06:36:48;;;;;;;9.73;7.60;;;7.80;99.90;;;-141.84;78.75;18249.25;5089867;28;20635;-63
2022/10/09 06:39:18;;;;;;;11.77;8.07;;;7.90;99.90;;;-141.84;78.72;18228.91;5090081;28;20232;-62
2022/10/09 06:41:46;;;;;;;9.67;7.90;;;8.00;99.90;;;-141.84;78.08;18283.78;5091554;28;20718;-63
2022/10/09 06:44:15;;;;;;;13.40;8.00;;;8.20;99.90;;;-141.84;78.07;18289.88;5094084;28;20222;-62
2022/10/09 06:46:48;;;;;;;8.77;7.50;;;8.30;99.90;;;-141.84;78.36;18298.00;5094511;28;20667;-62
2022/10/09 06:49:16;;;;;;;9.83;7.17;;;8.40;99.90;;;-141.84;77.96;18265.50;5094469;28;20223;-62
2022/10/09 06:51:44;;;;;;;8.83;7.50;;;8.50;99.90;;;-141.84;77.33;18322.38;5112312;28;20305;-61
2022/10/09 06:54:15;;;;;;;7.77;7.07;;;8.50;99.90;;;-141.84;77.00;18332.53;5113839;28;20722;-62
2022/10/09 06:56:44;;;;;;;9.63;7.43;;;8.70;99.90;;;-141.84;76.86;18334.56;5111897;28;20234;-63
2022/10/09 06:59:28;;;;;;;12.90;7.23;;;8.80;99.90;;;-141.84;76.64;18363.00;5113958;28;20226;-63
2022/10/09 07:02:02;;;;;;;10.90;7.53;;;8.80;99.90;;;-141.84;75.72;18350.81;5110454;28;20191;-64
2022/10/09 07:04:32;;;;;;;9.10;6.90;;;9.10;99.90;;;-141.84;75.82;18385.34;5113452;28;20229;-62
2022/10/09 07:07:01;;;;;;;7.67;6.90;;;9.10;99.90;;;-141.84;75.03;18411.75;5112466;28;20223;-62
2022/10/09 07:09:29;;;;;;;10.80;7.17;;;9.20;99.90;;;-141.84;74.58;18458.50;5112870;27;20215;-63
2022/10/09 07:11:59;;;;;;;8.63;6.57;;;9.30;99.90;;;-141.84;72.94;18462.56;5113119;28;20219;-63
2022/10/09 07:14:29;;;;;;;9.80;7.33;;;9.40;99.90;;;-141.84;72.99;18497.09;5112710;28;20219;-62
2022/10/09 07:16:59;;;;;;;7.80;6.43;;;9.40;99.90;;;-141.84;73.09;18505.22;5113250;28;20245;-63
2022/10/09 07:19:27;;;;;;;9.00;6.53;;;9.50;99.90;;;-141.84;72.79;18523.50;5113497;28;20195;-63
2022/10/09 07:21:55;;;;;;;8.80;6.60;;;9.70;99.90;;;-141.84;72.47;18558.03;5111244;28;20248;-62
2022/10/09 07:24:24;;;;;;;11.30;6.60;;;9.80;99.90;;;-141.84;71.50;18553.97;5113115;28;20223;-63
2022/10/09 07:26:54;;;;;;;8.70;6.67;;;9.70;99.90;;;-141.84;71.50;18584.47;5113844;28;20219;-63
2022/10/09 07:29:23;;;;;;;9.13;6.37;;;9.90;99.90;;;-141.84;71.42;18600.72;5113320;28;20219;-62
2022/10/09 07:31:51;;;;;;;9.40;6.27;;;10.00;99.90;;;-141.84;71.15;18610.88;5100820;28;20215;-62
2022/10/09 07:34:20;;;;;;;8.37;6.57;;;10.10;99.90;;;-141.84;70.16;18641.34;5091295;28;20207;-62
2022/10/09 07:36:48;;;;;;;7.40;5.90;;;10.20;99.90;;;-141.84;69.85;18684.00;5092910;28;20255;-62
2022/10/09 07:39:18;;;;;;;9.90;6.27;;;10.30;99.90;;;-141.84;69.48;18677.91;5093029;28;20227;-63
2022/10/09 07:41:47;;;;;;;6.47;5.47;;;10.30;99.90;;;-141.84;69.17;18730.75;5093203;28;20234;-61
2022/10/09 07:44:15;;;;;;;10.17;6.40;;;10.50;99.90;;;-141.84;69.06;18744.97;5092632;28;20754;-62
2022/10/09 07:46:45;;;;;;;9.53;6.10;;;10.50;99.90;;;-141.84;68.90;18767.31;5092753;28;20203;-63
2022/10/09 07:49:13;;;;;;;7.13;5.67;;;10.50;99.90;;;-141.84;68.33;18771.38;5093060;28;20235;-62
2022/10/09 07:51:41;;;;;;;9.03;5.43;;;10.60;99.90;;;-141.84;68.04;18814.03;5092481;28;20827;-62
2022/10/09 07:54:09;;;;;;;6.13;5.53;;;10.70;99.90;;;-141.84;68.04;18818.09;5092914;28;20289;-62
2022/10/09 07:56:38;;;;;;;6.53;5.57;;;10.80;99.90;;;-141.84;67.61;18852.66;5092480;28;20227;-62
2022/10/09 07:59:12;;;;;;;10.60;5.00;;;10.90;99.90;;;-141.84;67.63;18899.38;5092565;28;20226;-61
2022/10/09 08:01:41;;;;;;;9.10;5.67;;;11.00;99.90;;;-141.84;66.36;18964.41;5108541;28;20244;-64
2022/10/09 08:04:11;;;;;;;8.40;5.63;;;11.10;99.90;;;-141.84;65.65;19041.63;5113304;28;20274;-63
2022/10/09 08:06:39;;;;;;;8.50;5.10;;;11.20;99.90;;;-141.84;65.88;19035.53;5113357;28;20231;-61
2022/10/09 08:09:08;;;;;;;8.47;5.20;;;11.30;99.90;;;-141.84;65.61;19090.38;5113622;28;20231;-62
2022/10/09 08:11:39;;;;;;;5.57;4.90;;;11.30;99.90;;;-141.84;65.21;19122.91;5112471;28;20315;-62
2022/10/09 08:14:10;;;;;;;8.20;5.50;;;11.40;99.90;;;-141.84;64.43;19220.44;5112087;28;20192;-63
2022/10/09 08:16:45;;;;;;;7.63;5.63;;;11.50;99.90;;;-141.84;64.22;19187.91;5113841;28;20184;-62
2022/10/09 08:19:14;;;;;;;8.60;5.47;;;11.60;99.90;;;-141.84;63.57;19330.16;5112145;28;20633;-63
2022/10/09 08:21:42;;;;;;;7.17;4.97;;;11.70;99.90;;;-141.84;63.61;19279.38;5110981;28;20745;-62
2022/10/09 08:24:11;;;;;;;7.43;5.47;;;11.70;99.90;;;-141.84;62.88;19356.59;5111482;28;20234;-63
2022/10/09 08:26:39;;;;;;;7.07;4.73;;;11.80;99.90;;;-141.84;62.67;19376.91;5108909;28;20217;-61
2022/10/09 08:29:09;;;;;;;6.63;5.03;;;11.80;99.90;;;-141.84;62.54;19405.34;5112237;28;20248;-63
2022/10/09 08:31:37;;;;;;;7.00;5.10;;;11.90;99.90;;;-141.84;62.38;19441.94;5108125;28;20538;-62
2022/10/09 08:34:06;;;;;;;7.97;5.30;;;12.00;99.90;;;-141.84;62.30;19435.84;5112606;28;20216;-62
2022/10/09 08:36:35;;;;;;;8.47;5.57;;;12.00;99.90;;;-141.84;62.13;19446.00;5111913;28;20220;-64
2022/10/09 08:39:03;;;;;;;8.17;5.30;;;12.10;99.90;;;-141.84;61.67;19523.22;5113908;28;20219;-62
2022/10/09 08:41:46;;;;;;;8.23;5.40;;;12.20;99.90;;;-141.84;60.58;19687.84;5113532;28;20685;-61
2022/10/09 08:44:20;;;;;;;8.43;5.20;;;12.40;99.90;;;-141.84;60.94;19651.25;5113120;28;20291;-63
2022/10/09 08:46:59;;;;;;;7.30;4.43;;;12.50;99.90;;;-141.84;61.43;19602.47;5110335;28;20703;-61
2022/10/09 08:49:38;;;;;;;5.53;4.40;;;12.50;99.90;;;-141.84;61.36;19628.91;5114680;27;20208;-61
2022/10/09 08:52:24;;;;;;;11.17;4.53;;;12.60;99.90;;;-141.84;60.28;19746.78;5114226;28;20246;-62
2022/10/09 08:54:58;;;;;;;7.47;4.80;;;12.70;99.90;;;-141.84;60.47;19736.59;5113702;27;20234;-62
2022/10/09 08:57:32;;;;;;;6.33;4.40;;;12.70;99.90;;;-141.84;60.49;19758.97;5113545;27;20249;-62
2022/10/09 09:00:00;;;;;;;8.53;4.30;;;12.90;99.90;;;-141.84;59.74;19793.50;5113247;28;20219;-62
2022/10/09 09:02:49;;;;;;;4.60;3.70;;;13.00;99.90;;;-141.84;59.80;19805.72;5113349;28;20718;-62
2022/10/09 09:05:37;;;;;;;7.83;4.27;;;13.10;99.90;;;-141.84;59.36;19870.75;5112115;28;20227;-62
2022/10/09 09:08:25;;;;;;;7.05;4.00;;;13.10;99.90;;;-141.84;59.23;19897.16;5113261;28;20278;-62
2022/10/09 09:11:10;;;;;;;5.68;3.92;;;13.20;99.90;;;-141.84;58.77;19933.75;5113180;28;20226;-62
2022/10/09 09:13:57;;;;;;;6.50;4.23;;;13.30;99.90;;;-141.84;58.54;19986.59;5113957;28;20236;-62
2022/10/09 09:16:39;;;;;;;6.72;4.18;;;13.40;99.90;;;-141.84;58.75;19962.19;5110164;28;20208;-62
2022/10/09 09:19:38;;;;;;;7.07;4.20;;;13.50;99.90;;;-141.84;58.76;19988.63;5112753;28;20215;-62
2022/10/09 09:22:13;;;;;;;7.67;4.17;;;13.60;99.90;;;-141.84;57.32;19998.78;5112295;28;20219;-61
2022/10/09 09:24:47;;;;;;;6.22;4.45;;;13.70;99.90;;;-141.84;57.90;20043.50;5112427;28;20753;-62
2022/10/09 09:27:19;;;;;;;9.07;4.53;;;13.80;99.90;;;-141.84;57.58;20074.00;5112811;28;20226;-62
2022/10/09 09:29:54;;;;;;;5.05;3.60;;;13.70;99.90;;;-141.84;58.02;20057.72;5112134;28;20221;-62
2022/10/09 09:32:27;;;;;;;6.53;3.45;;;13.80;99.90;;;-141.84;58.11;20090.25;5095342;28;20238;-62
2022/10/09 09:35:08;;;;;;;6.95;3.50;;;13.90;99.90;;;-141.84;57.57;20088.22;5092517;28;20191;-63
2022/10/09 09:37:36;;;;;;;7.97;4.53;;;13.90;99.90;;;-141.84;57.61;20067.88;5092191;28;20646;-62
2022/10/09 09:40:14;;;;;;;7.10;3.40;;;14.00;99.90;;;-141.84;57.48;20147.16;5091747;28;20281;-61
2022/10/09 09:43:12;;;;;;;7.20;3.42;;;14.00;99.90;;;-141.84;57.72;20108.53;5091674;28;20224;-62
2022/10/09 09:45:42;;;;;;;7.70;3.30;;;14.10;99.90;;;-141.84;57.33;20122.78;5092096;28;20220;-62
2022/10/09 09:48:17;;;;;;;8.68;3.40;;;14.10;99.90;;;-141.84;57.20;20141.06;5091891;28;20306;-62
2022/10/09 09:50:46;;;;;;;8.23;3.35;;;14.20;99.90;;;-141.84;57.10;20175.63;5091808;28;20631;-61
2022/10/09 09:53:39;;;;;;;4.57;3.03;;;14.30;99.90;;;-141.84;56.43;20232.53;5090812;28;20311;-62
2022/10/09 09:56:10;;;;;;;7.40;3.38;;;14.40;99.90;;;-141.84;56.23;20206.09;5091965;28;20184;-63
2022/10/09 09:58:44;;;;;;;8.45;3.10;;;14.50;99.90;;;-141.84;55.49;20265.03;5092263;28;20184;-62
2022/10/09 10:01:23;;;;;;;7.03;3.20;;;14.50;99.90;;;-141.84;55.80;20246.75;5090797;28;20219;-62
2022/10/09 10:03:53;;;;;;;6.07;2.70;;;14.50;99.90;;;-141.84;55.92;20275.22;5090604;28;20231;-63
2022/10/09 10:06:24;;;;;;;4.60;2.20;;;14.60;99.90;;;-141.84;55.44;20250.81;5090561;28;20230;-62
2022/10/09 10:09:01;;;;;;;6.20;1.95;;;14.60;99.90;;;-141.84;54.36;20297.56;5090530;28;20314;-63
2022/10/09 10:11:33;;;;;;;4.53;1.88;;;14.70;99.90;;;-141.84;53.90;20340.25;5090655;28;20241;-62
2022/10/09 10:14:07;;;;;;;6.47;1.50;;;14.80;99.90;;;-141.84;53.71;20328.06;5090286;28;20741;-63
2022/10/09 10:16:38;;;;;;;4.40;1.55;;;14.70;99.90;;;-141.84;53.98;20328.06;5090739;28;20721;-63
2022/10/09 10:19:20;;;;;;;4.22;1.98;;;14.70;99.90;;;-141.84;54.11;20348.38;5090416;28;20235;-63
2022/10/09 10:21:54;;;;;;;4.72;1.75;;;14.70;99.90;;;-141.84;54.08;20395.13;5091594;28;20227;-63
2022/10/09 10:24:31;;;;;;;3.35;1.70;;;14.80;99.90;;;-141.84;53.72;20348.38;5110082;28;20234;-63